sensor_id;sensor_type;location;lat;lon;timestamp;temperature;humidity
32594;DHT22;19018;49.046;9.140;2022-07-19T00:01:14;22.90;38.60
32594;DHT22;19018;49.046;9.140;2022-07-19T00:03:39;22.80;38.60
32594;DHT22;19018;49.046;9.140;2022-07-19T00:06:05;22.80;38.60
32594;DHT22;19018;49.046;9.140;2022-07-19T00:08:30;22.70;38.60
32594;DHT22;19018;49.046;9.140;2022-07-19T00:10:56;22.70;38.60
32594;DHT22;19018;49.046;9.140;2022-07-19T00:13:21;22.60;38.70
32594;DHT22;19018;49.046;9.140;2022-07-19T00:15:47;22.60;38.70
32594;DHT22;19018;49.046;9.140;2022-07-19T00:18:14;22.50;38.70
32594;DHT22;19018;49.046;9.140;2022-07-19T00:20:39;22.50;38.80
32594;DHT22;19018;49.046;9.140;2022-07-19T00:23:05;22.40;38.80
32594;DHT22;19018;49.046;9.140;2022-07-19T00:25:30;22.40;38.80
32594;DHT22;19018;49.046;9.140;2022-07-19T00:27:56;22.30;38.90
32594;DHT22;19018;49.046;9.140;2022-07-19T00:30:21;22.30;38.90
32594;DHT22;19018;49.046;9.140;2022-07-19T00:32:47;22.20;38.90
32594;DHT22;19018;49.046;9.140;2022-07-19T00:35:13;22.20;39.00
32594;DHT22;19018;49.046;9.140;2022-07-19T00:40:04;22.10;39.00
32594;DHT22;19018;49.046;9.140;2022-07-19T00:42:30;22.00;39.00
32594;DHT22;19018;49.046;9.140;2022-07-19T00:44:55;21.90;39.00
32594;DHT22;19018;49.046;9.140;2022-07-19T00:47:21;21.90;39.00
32594;DHT22;19018;49.046;9.140;2022-07-19T00:49:47;21.90;39.10
32594;DHT22;19018;49.046;9.140;2022-07-19T00:52:13;21.80;39.10
32594;DHT22;19018;49.046;9.140;2022-07-19T00:54:39;21.80;39.10
32594;DHT22;19018;49.046;9.140;2022-07-19T00:57:04;21.70;39.10
32594;DHT22;19018;49.046;9.140;2022-07-19T00:59:30;21.70;39.20
32594;DHT22;19018;49.046;9.140;2022-07-19T01:01:56;21.70;39.20
32594;DHT22;19018;49.046;9.140;2022-07-19T01:06:48;21.60;39.20
32594;DHT22;19018;49.046;9.140;2022-07-19T01:09:14;21.50;39.20
32594;DHT22;19018;49.046;9.140;2022-07-19T01:11:39;21.50;39.30
32594;DHT22;19018;49.046;9.140;2022-07-19T01:14:05;21.40;39.30
32594;DHT22;19018;49.046;9.140;2022-07-19T01:16:31;21.40;39.30
32594;DHT22;19018;49.046;9.140;2022-07-19T01:18:56;21.30;39.30
32594;DHT22;19018;49.046;9.140;2022-07-19T01:21:23;21.30;39.40
32594;DHT22;19018;49.046;9.140;2022-07-19T01:23:49;21.20;39.40
32594;DHT22;19018;49.046;9.140;2022-07-19T01:26:15;21.20;39.40
32594;DHT22;19018;49.046;9.140;2022-07-19T01:28:40;21.20;39.50
32594;DHT22;19018;49.046;9.140;2022-07-19T01:33:37;21.10;39.50
32594;DHT22;19018;49.046;9.140;2022-07-19T01:36:03;21.00;39.50
32594;DHT22;19018;49.046;9.140;2022-07-19T01:40:57;20.90;39.50
32594;DHT22;19018;49.046;9.140;2022-07-19T01:43:22;20.90;39.60
32594;DHT22;19018;49.046;9.140;2022-07-19T01:45:48;20.90;39.60
32594;DHT22;19018;49.046;9.140;2022-07-19T01:48:13;20.80;39.60
32594;DHT22;19018;49.046;9.140;2022-07-19T01:50:39;20.80;39.60
32594;DHT22;19018;49.046;9.140;2022-07-19T01:53:05;20.80;39.70
32594;DHT22;19018;49.046;9.140;2022-07-19T01:55:30;20.70;39.70
32594;DHT22;19018;49.046;9.140;2022-07-19T01:57:56;20.70;39.70
32594;DHT22;19018;49.046;9.140;2022-07-19T02:00:21;20.60;39.70
32594;DHT22;19018;49.046;9.140;2022-07-19T02:02:47;20.60;39.70
32594;DHT22;19018;49.046;9.140;2022-07-19T02:05:13;20.50;39.70
32594;DHT22;19018;49.046;9.140;2022-07-19T02:07:38;20.50;39.70
32594;DHT22;19018;49.046;9.140;2022-07-19T02:10:04;20.40;39.80
32594;DHT22;19018;49.046;9.140;2022-07-19T02:12:30;20.40;39.80
32594;DHT22;19018;49.046;9.140;2022-07-19T02:14:56;20.40;39.80
32594;DHT22;19018;49.046;9.140;2022-07-19T02:17:22;20.30;39.80
32594;DHT22;19018;49.046;9.140;2022-07-19T02:19:47;20.30;39.80
32594;DHT22;19018;49.046;9.140;2022-07-19T02:24:38;20.20;39.90
32594;DHT22;19018;49.046;9.140;2022-07-19T02:27:08;20.20;40.00
32594;DHT22;19018;49.046;9.140;2022-07-19T02:29:34;20.20;40.00
32594;DHT22;19018;49.046;9.140;2022-07-19T02:31:59;20.10;40.00
32594;DHT22;19018;49.046;9.140;2022-07-19T02:34:25;20.10;40.00
32594;DHT22;19018;49.046;9.140;2022-07-19T02:36:50;20.00;40.00
32594;DHT22;19018;49.046;9.140;2022-07-19T02:39:16;20.00;40.10
32594;DHT22;19018;49.046;9.140;2022-07-19T02:41:41;20.00;40.10
32594;DHT22;19018;49.046;9.140;2022-07-19T02:44:07;20.00;40.20
32594;DHT22;19018;49.046;9.140;2022-07-19T02:46:32;19.90;40.10
32594;DHT22;19018;49.046;9.140;2022-07-19T02:48:58;19.90;40.20
32594;DHT22;19018;49.046;9.140;2022-07-19T02:51:23;19.80;40.20
32594;DHT22;19018;49.046;9.140;2022-07-19T02:53:49;19.80;40.20
32594;DHT22;19018;49.046;9.140;2022-07-19T02:56:14;19.80;40.20
32594;DHT22;19018;49.046;9.140;2022-07-19T02:58:40;19.70;40.20
32594;DHT22;19018;49.046;9.140;2022-07-19T03:01:05;19.70;40.30
32594;DHT22;19018;49.046;9.140;2022-07-19T03:03:31;19.70;40.30
32594;DHT22;19018;49.046;9.140;2022-07-19T03:06:09;19.70;40.40
32594;DHT22;19018;49.046;9.140;2022-07-19T03:08:35;19.60;40.30
32594;DHT22;19018;49.046;9.140;2022-07-19T03:11:00;19.60;40.40
32594;DHT22;19018;49.046;9.140;2022-07-19T03:13:26;19.50;40.40
32594;DHT22;19018;49.046;9.140;2022-07-19T03:15:51;19.50;40.40
32594;DHT22;19018;49.046;9.140;2022-07-19T03:18:17;19.50;40.50
32594;DHT22;19018;49.046;9.140;2022-07-19T03:20:43;19.50;40.50
32594;DHT22;19018;49.046;9.140;2022-07-19T03:23:08;19.40;40.50
32594;DHT22;19018;49.046;9.140;2022-07-19T03:25:34;19.40;40.50
32594;DHT22;19018;49.046;9.140;2022-07-19T03:27:59;19.40;40.60
32594;DHT22;19018;49.046;9.140;2022-07-19T03:30:25;19.30;40.50
32594;DHT22;19018;49.046;9.140;2022-07-19T03:32:50;19.30;40.60
32594;DHT22;19018;49.046;9.140;2022-07-19T03:35:16;19.30;40.60
32594;DHT22;19018;49.046;9.140;2022-07-19T03:37:42;19.30;40.60
32594;DHT22;19018;49.046;9.140;2022-07-19T03:40:07;19.20;40.60
32594;DHT22;19018;49.046;9.140;2022-07-19T03:42:33;19.20;40.70
32594;DHT22;19018;49.046;9.140;2022-07-19T03:44:59;19.20;40.70
32594;DHT22;19018;49.046;9.140;2022-07-19T03:47:24;19.10;40.70
32594;DHT22;19018;49.046;9.140;2022-07-19T03:49:50;19.10;40.70
32594;DHT22;19018;49.046;9.140;2022-07-19T03:52:15;19.10;40.70
32594;DHT22;19018;49.046;9.140;2022-07-19T03:57:07;19.00;40.70
32594;DHT22;19018;49.046;9.140;2022-07-19T03:59:32;19.00;40.80
32594;DHT22;19018;49.046;9.140;2022-07-19T04:01:58;19.00;40.80
32594;DHT22;19018;49.046;9.140;2022-07-19T04:04:23;18.90;40.80
32594;DHT22;19018;49.046;9.140;2022-07-19T04:06:49;18.90;40.80
32594;DHT22;19018;49.046;9.140;2022-07-19T04:09:14;18.90;40.80
32594;DHT22;19018;49.046;9.140;2022-07-19T04:11:40;18.90;40.90
32594;DHT22;19018;49.046;9.140;2022-07-19T04:14:06;18.90;40.90
32594;DHT22;19018;49.046;9.140;2022-07-19T04:16:37;18.80;40.90
32594;DHT22;19018;49.046;9.140;2022-07-19T04:19:07;18.80;40.90
32594;DHT22;19018;49.046;9.140;2022-07-19T04:21:42;18.80;41.00
32594;DHT22;19018;49.046;9.140;2022-07-19T04:24:14;18.80;41.00
32594;DHT22;19018;49.046;9.140;2022-07-19T04:26:42;18.80;41.00
32594;DHT22;19018;49.046;9.140;2022-07-19T04:31:47;18.70;41.10
32594;DHT22;19018;49.046;9.140;2022-07-19T04:34:13;18.70;41.10
32594;DHT22;19018;49.046;9.140;2022-07-19T04:36:39;18.70;41.10
32594;DHT22;19018;49.046;9.140;2022-07-19T04:39:20;18.70;41.10
32594;DHT22;19018;49.046;9.140;2022-07-19T04:41:51;18.70;41.20
32594;DHT22;19018;49.046;9.140;2022-07-19T04:44:17;18.70;41.20
32594;DHT22;19018;49.046;9.140;2022-07-19T04:46:43;18.70;41.20
32594;DHT22;19018;49.046;9.140;2022-07-19T04:49:08;18.60;41.20
32594;DHT22;19018;49.046;9.140;2022-07-19T04:51:42;18.60;41.30
32594;DHT22;19018;49.046;9.140;2022-07-19T04:54:08;18.60;41.30
32594;DHT22;19018;49.046;9.140;2022-07-19T04:56:42;18.60;41.30
32594;DHT22;19018;49.046;9.140;2022-07-19T04:59:08;18.60;41.40
32594;DHT22;19018;49.046;9.140;2022-07-19T05:01:52;18.60;41.40
32594;DHT22;19018;49.046;9.140;2022-07-19T05:06:46;18.60;41.40
32594;DHT22;19018;49.046;9.140;2022-07-19T05:09:21;18.60;41.40
32594;DHT22;19018;49.046;9.140;2022-07-19T05:11:47;18.60;41.40
32594;DHT22;19018;49.046;9.140;2022-07-19T05:14:16;18.60;41.40
32594;DHT22;19018;49.046;9.140;2022-07-19T05:16:42;18.60;41.50
32594;DHT22;19018;49.046;9.140;2022-07-19T05:19:15;18.60;41.50
32594;DHT22;19018;49.046;9.140;2022-07-19T05:21:58;18.60;41.50
32594;DHT22;19018;49.046;9.140;2022-07-19T05:24:47;18.60;41.50
32594;DHT22;19018;49.046;9.140;2022-07-19T05:32:21;18.60;41.70
32594;DHT22;19018;49.046;9.140;2022-07-19T05:34:47;18.70;41.80
32594;DHT22;19018;49.046;9.140;2022-07-19T05:37:16;18.70;41.90
32594;DHT22;19018;49.046;9.140;2022-07-19T05:44:58;18.70;42.10
32594;DHT22;19018;49.046;9.140;2022-07-19T05:47:47;18.80;42.30
32594;DHT22;19018;49.046;9.140;2022-07-19T05:50:27;18.80;42.50
32594;DHT22;19018;49.046;9.140;2022-07-19T05:53:11;18.90;42.70
32594;DHT22;19018;49.046;9.140;2022-07-19T05:55:37;18.90;42.90
32594;DHT22;19018;49.046;9.140;2022-07-19T05:58:08;19.00;43.30
32594;DHT22;19018;49.046;9.140;2022-07-19T06:03:00;19.00;43.30
32594;DHT22;19018;49.046;9.140;2022-07-19T06:05:28;19.10;43.50
32594;DHT22;19018;49.046;9.140;2022-07-19T06:07:54;19.10;43.60
32594;DHT22;19018;49.046;9.140;2022-07-19T06:10:23;19.20;43.80
32594;DHT22;19018;49.046;9.140;2022-07-19T06:12:55;19.30;44.00
32594;DHT22;19018;49.046;9.140;2022-07-19T06:15:21;19.40;44.20
32594;DHT22;19018;49.046;9.140;2022-07-19T06:17:51;19.40;44.40
32594;DHT22;19018;49.046;9.140;2022-07-19T06:20:26;19.50;45.20
32594;DHT22;19018;49.046;9.140;2022-07-19T06:22:54;19.50;45.10
32594;DHT22;19018;49.046;9.140;2022-07-19T06:25:23;19.60;45.00
32594;DHT22;19018;49.046;9.140;2022-07-19T06:27:52;19.70;45.80
32594;DHT22;19018;49.046;9.140;2022-07-19T06:30:17;19.80;45.90
32594;DHT22;19018;49.046;9.140;2022-07-19T06:32:43;19.80;47.20
32594;DHT22;19018;49.046;9.140;2022-07-19T06:35:08;20.00;46.70
32594;DHT22;19018;49.046;9.140;2022-07-19T06:37:37;20.00;46.30
32594;DHT22;19018;49.046;9.140;2022-07-19T06:40:10;20.10;46.20
32594;DHT22;19018;49.046;9.140;2022-07-19T06:42:39;20.20;46.70
32594;DHT22;19018;49.046;9.140;2022-07-19T06:45:10;20.30;46.50
32594;DHT22;19018;49.046;9.140;2022-07-19T06:47:48;20.20;46.50
32594;DHT22;19018;49.046;9.140;2022-07-19T06:50:20;20.50;46.40
32594;DHT22;19018;49.046;9.140;2022-07-19T06:55:31;20.70;47.10
32594;DHT22;19018;49.046;9.140;2022-07-19T06:58:06;20.80;47.40
32594;DHT22;19018;49.046;9.140;2022-07-19T07:00:34;20.90;47.00
32594;DHT22;19018;49.046;9.140;2022-07-19T07:05:56;21.10;47.30
32594;DHT22;19018;49.046;9.140;2022-07-19T07:08:30;21.20;47.30
32594;DHT22;19018;49.046;9.140;2022-07-19T07:11:06;21.40;48.50
32594;DHT22;19018;49.046;9.140;2022-07-19T07:13:32;21.40;48.80
32594;DHT22;19018;49.046;9.140;2022-07-19T07:15:57;21.50;48.00
32594;DHT22;19018;49.046;9.140;2022-07-19T07:18:23;21.60;48.00
32594;DHT22;19018;49.046;9.140;2022-07-19T07:20:49;21.70;48.10
32594;DHT22;19018;49.046;9.140;2022-07-19T07:23:14;21.70;48.30
32594;DHT22;19018;49.046;9.140;2022-07-19T07:25:42;21.90;48.50
32594;DHT22;19018;49.046;9.140;2022-07-19T07:28:11;22.10;48.90
32594;DHT22;19018;49.046;9.140;2022-07-19T07:30:39;22.20;49.00
32594;DHT22;19018;49.046;9.140;2022-07-19T07:33:07;22.30;48.70
32594;DHT22;19018;49.046;9.140;2022-07-19T07:35:42;22.50;48.80
32594;DHT22;19018;49.046;9.140;2022-07-19T07:38:08;22.60;48.80
32594;DHT22;19018;49.046;9.140;2022-07-19T07:40:33;22.70;49.20
32594;DHT22;19018;49.046;9.140;2022-07-19T07:43:02;22.80;49.00
32594;DHT22;19018;49.046;9.140;2022-07-19T07:48:18;23.10;49.00
32594;DHT22;19018;49.046;9.140;2022-07-19T07:50:56;23.20;49.00
32594;DHT22;19018;49.046;9.140;2022-07-19T07:54:03;23.40;49.50
32594;DHT22;19018;49.046;9.140;2022-07-19T07:56:32;23.50;49.30
32594;DHT22;19018;49.046;9.140;2022-07-19T07:59:16;23.70;49.70
32594;DHT22;19018;49.046;9.140;2022-07-19T08:04:37;24.00;49.50
32594;DHT22;19018;49.046;9.140;2022-07-19T08:07:03;24.10;49.70
32594;DHT22;19018;49.046;9.140;2022-07-19T08:09:28;24.30;49.60
32594;DHT22;19018;49.046;9.140;2022-07-19T08:11:54;24.40;49.80
32594;DHT22;19018;49.046;9.140;2022-07-19T08:17:09;24.70;49.90
32594;DHT22;19018;49.046;9.140;2022-07-19T08:19:47;24.90;49.60
32594;DHT22;19018;49.046;9.140;2022-07-19T08:22:16;25.10;49.60
32594;DHT22;19018;49.046;9.140;2022-07-19T08:24:42;25.20;49.60
32594;DHT22;19018;49.046;9.140;2022-07-19T08:27:14;25.50;49.70
32594;DHT22;19018;49.046;9.140;2022-07-19T08:29:40;25.50;49.60
32594;DHT22;19018;49.046;9.140;2022-07-19T08:32:47;25.70;49.60
32594;DHT22;19018;49.046;9.140;2022-07-19T08:37:51;26.00;49.70
32594;DHT22;19018;49.046;9.140;2022-07-19T08:40:17;26.20;49.80
32594;DHT22;19018;49.046;9.140;2022-07-19T08:45:12;26.50;49.70
32594;DHT22;19018;49.046;9.140;2022-07-19T08:47:44;26.70;49.80
32594;DHT22;19018;49.046;9.140;2022-07-19T08:50:13;26.80;49.70
32594;DHT22;19018;49.046;9.140;2022-07-19T08:52:45;27.10;49.40
32594;DHT22;19018;49.046;9.140;2022-07-19T08:55:11;27.20;49.50
32594;DHT22;19018;49.046;9.140;2022-07-19T08:57:40;27.40;49.40
32594;DHT22;19018;49.046;9.140;2022-07-19T09:00:31;27.60;49.30
32594;DHT22;19018;49.046;9.140;2022-07-19T09:03:02;27.80;49.20
32594;DHT22;19018;49.046;9.140;2022-07-19T09:05:29;27.90;49.10
32594;DHT22;19018;49.046;9.140;2022-07-19T09:08:17;28.10;48.80
32594;DHT22;19018;49.046;9.140;2022-07-19T09:10:49;28.20;48.70
32594;DHT22;19018;49.046;9.140;2022-07-19T09:13:40;28.50;48.50
32594;DHT22;19018;49.046;9.140;2022-07-19T09:16:09;28.60;48.80
32594;DHT22;19018;49.046;9.140;2022-07-19T09:18:41;28.80;48.60
32594;DHT22;19018;49.046;9.140;2022-07-19T09:21:19;29.10;48.70
32594;DHT22;19018;49.046;9.140;2022-07-19T09:24:35;29.20;48.50
32594;DHT22;19018;49.046;9.140;2022-07-19T09:26:53;29.40;48.50
32594;DHT22;19018;49.046;9.140;2022-07-19T09:29:23;29.50;48.20
32594;DHT22;19018;49.046;9.140;2022-07-19T09:34:27;29.80;48.10
32594;DHT22;19018;49.046;9.140;2022-07-19T09:37:14;29.90;47.60
32594;DHT22;19018;49.046;9.140;2022-07-19T09:39:41;30.10;47.70
32594;DHT22;19018;49.046;9.140;2022-07-19T09:42:17;30.30;47.70
32594;DHT22;19018;49.046;9.140;2022-07-19T09:47:42;30.60;47.10
32594;DHT22;19018;49.046;9.140;2022-07-19T09:50:09;30.70;47.10
32594;DHT22;19018;49.046;9.140;2022-07-19T09:52:35;30.90;47.00
32594;DHT22;19018;49.046;9.140;2022-07-19T09:57:27;31.10;46.50
32594;DHT22;19018;49.046;9.140;2022-07-19T10:00:05;31.30;46.60
32594;DHT22;19018;49.046;9.140;2022-07-19T10:07:43;31.70;46.40
32594;DHT22;19018;49.046;9.140;2022-07-19T10:10:18;31.90;46.60
32594;DHT22;19018;49.046;9.140;2022-07-19T10:13:08;32.00;46.40
32594;DHT22;19018;49.046;9.140;2022-07-19T10:15:39;32.10;46.40
32594;DHT22;19018;49.046;9.140;2022-07-19T10:18:16;32.30;45.60
32594;DHT22;19018;49.046;9.140;2022-07-19T10:20:45;32.40;45.60
32594;DHT22;19018;49.046;9.140;2022-07-19T10:25:50;32.70;45.50
32594;DHT22;19018;49.046;9.140;2022-07-19T10:28:29;32.70;45.70
32594;DHT22;19018;49.046;9.140;2022-07-19T10:31:31;32.90;45.50
32594;DHT22;19018;49.046;9.140;2022-07-19T10:34:00;33.00;45.80
32594;DHT22;19018;49.046;9.140;2022-07-19T10:36:33;33.10;45.10
32594;DHT22;19018;49.046;9.140;2022-07-19T10:42:13;33.40;44.50
32594;DHT22;19018;49.046;9.140;2022-07-19T10:48:07;33.60;45.30
32594;DHT22;19018;49.046;9.140;2022-07-19T10:50:15;33.70;45.60
32594;DHT22;19018;49.046;9.140;2022-07-19T10:52:44;33.80;45.50
32594;DHT22;19018;49.046;9.140;2022-07-19T11:00:27;34.10;45.40
32594;DHT22;19018;49.046;9.140;2022-07-19T11:05:45;34.30;44.80
32594;DHT22;19018;49.046;9.140;2022-07-19T11:08:18;34.40;45.00
32594;DHT22;19018;49.046;9.140;2022-07-19T11:11:04;34.50;45.30
32594;DHT22;19018;49.046;9.140;2022-07-19T11:13:30;34.60;44.20
32594;DHT22;19018;49.046;9.140;2022-07-19T11:15:57;34.70;43.40
32594;DHT22;19018;49.046;9.140;2022-07-19T11:21:21;34.90;44.60
32594;DHT22;19018;49.046;9.140;2022-07-19T11:26:45;35.00;43.80
32594;DHT22;19018;49.046;9.140;2022-07-19T11:29:27;35.10;43.60
32594;DHT22;19018;49.046;9.140;2022-07-19T11:35:13;35.30;42.50
32594;DHT22;19018;49.046;9.140;2022-07-19T11:37:51;35.30;42.70
32594;DHT22;19018;49.046;9.140;2022-07-19T11:40:18;35.40;43.30
32594;DHT22;19018;49.046;9.140;2022-07-19T11:42:54;35.50;43.20
32594;DHT22;19018;49.046;9.140;2022-07-19T11:45:24;35.60;42.30
32594;DHT22;19018;49.046;9.140;2022-07-19T11:47:51;35.60;42.60
32594;DHT22;19018;49.046;9.140;2022-07-19T11:50:27;35.80;41.80
32594;DHT22;19018;49.046;9.140;2022-07-19T11:57:51;35.90;42.60
32594;DHT22;19018;49.046;9.140;2022-07-19T12:00:26;35.90;41.70
32594;DHT22;19018;49.046;9.140;2022-07-19T12:08:16;36.10;40.80
32594;DHT22;19018;49.046;9.140;2022-07-19T12:10:45;36.20;41.30
32594;DHT22;19018;49.046;9.140;2022-07-19T12:13:30;36.20;39.40
32594;DHT22;19018;49.046;9.140;2022-07-19T12:15:57;36.30;41.30
32594;DHT22;19018;49.046;9.140;2022-07-19T12:18:45;36.40;40.80
32594;DHT22;19018;49.046;9.140;2022-07-19T12:26:31;36.50;40.40
32594;DHT22;19018;49.046;9.140;2022-07-19T12:29:18;36.50;40.50
32594;DHT22;19018;49.046;9.140;2022-07-19T12:31:51;36.60;40.90
32594;DHT22;19018;49.046;9.140;2022-07-19T12:39:56;36.70;40.40
32594;DHT22;19018;49.046;9.140;2022-07-19T12:42:22;36.80;40.30
32594;DHT22;19018;49.046;9.140;2022-07-19T12:44:47;36.80;38.90
32594;DHT22;19018;49.046;9.140;2022-07-19T12:47:26;36.80;38.70
32594;DHT22;19018;49.046;9.140;2022-07-19T12:49:54;36.80;39.50
32594;DHT22;19018;49.046;9.140;2022-07-19T12:52:20;36.90;39.60
32594;DHT22;19018;49.046;9.140;2022-07-19T13:00:30;37.00;38.30
32594;DHT22;19018;49.046;9.140;2022-07-19T13:02:57;37.00;39.30
32594;DHT22;19018;49.046;9.140;2022-07-19T13:05:26;37.10;39.20
32594;DHT22;19018;49.046;9.140;2022-07-19T13:08:02;37.10;37.70
32594;DHT22;19018;49.046;9.140;2022-07-19T13:10:49;37.10;39.30
32594;DHT22;19018;49.046;9.140;2022-07-19T13:13:18;37.10;38.80
32594;DHT22;19018;49.046;9.140;2022-07-19T13:15:46;37.30;38.40
32594;DHT22;19018;49.046;9.140;2022-07-19T13:18:14;37.20;37.40
32594;DHT22;19018;49.046;9.140;2022-07-19T13:20:41;37.30;37.30
32594;DHT22;19018;49.046;9.140;2022-07-19T13:23:08;37.30;37.90
32594;DHT22;19018;49.046;9.140;2022-07-19T13:25:52;37.30;38.00
32594;DHT22;19018;49.046;9.140;2022-07-19T13:28:18;37.30;38.50
32594;DHT22;19018;49.046;9.140;2022-07-19T13:30:47;37.40;37.30
32594;DHT22;19018;49.046;9.140;2022-07-19T13:33:22;37.40;37.00
32594;DHT22;19018;49.046;9.140;2022-07-19T13:35:48;37.40;36.80
32594;DHT22;19018;49.046;9.140;2022-07-19T13:38:14;37.40;36.90
32594;DHT22;19018;49.046;9.140;2022-07-19T13:40:39;37.40;36.60
32594;DHT22;19018;49.046;9.140;2022-07-19T13:43:05;37.40;37.40
32594;DHT22;19018;49.046;9.140;2022-07-19T13:45:31;37.40;38.00
32594;DHT22;19018;49.046;9.140;2022-07-19T13:48:19;37.40;38.20
32594;DHT22;19018;49.046;9.140;2022-07-19T13:51:03;37.40;37.90
32594;DHT22;19018;49.046;9.140;2022-07-19T13:53:29;37.40;38.10
32594;DHT22;19018;49.046;9.140;2022-07-19T13:55:55;37.50;37.40
32594;DHT22;19018;49.046;9.140;2022-07-19T13:58:26;37.50;37.10
32594;DHT22;19018;49.046;9.140;2022-07-19T14:00:52;37.40;37.20
32594;DHT22;19018;49.046;9.140;2022-07-19T14:05:57;37.50;37.40
32594;DHT22;19018;49.046;9.140;2022-07-19T14:08:26;37.50;37.50
32594;DHT22;19018;49.046;9.140;2022-07-19T14:10:54;37.50;36.10
32594;DHT22;19018;49.046;9.140;2022-07-19T14:15:56;37.50;36.80
32594;DHT22;19018;49.046;9.140;2022-07-19T14:18:29;37.50;37.70
32594;DHT22;19018;49.046;9.140;2022-07-19T14:20:58;37.50;36.60
32594;DHT22;19018;49.046;9.140;2022-07-19T14:23:32;37.60;35.60
32594;DHT22;19018;49.046;9.140;2022-07-19T14:26:01;37.50;36.80
32594;DHT22;19018;49.046;9.140;2022-07-19T14:28:30;37.50;36.70
32594;DHT22;19018;49.046;9.140;2022-07-19T14:30:55;37.50;37.70
32594;DHT22;19018;49.046;9.140;2022-07-19T14:33:24;37.50;37.00
32594;DHT22;19018;49.046;9.140;2022-07-19T14:35:51;37.60;36.60
32594;DHT22;19018;49.046;9.140;2022-07-19T14:38:48;37.60;37.10
32594;DHT22;19018;49.046;9.140;2022-07-19T14:41:28;37.50;37.00
32594;DHT22;19018;49.046;9.140;2022-07-19T14:44:29;37.60;35.40
32594;DHT22;19018;49.046;9.140;2022-07-19T14:47:01;37.60;35.40
32594;DHT22;19018;49.046;9.140;2022-07-19T14:49:29;37.50;35.00
32594;DHT22;19018;49.046;9.140;2022-07-19T14:51:55;37.50;36.60
32594;DHT22;19018;49.046;9.140;2022-07-19T14:54:27;37.60;36.60
32594;DHT22;19018;49.046;9.140;2022-07-19T14:56:53;37.60;37.00
32594;DHT22;19018;49.046;9.140;2022-07-19T15:01:57;37.50;36.20
32594;DHT22;19018;49.046;9.140;2022-07-19T15:06:53;37.50;36.70
32594;DHT22;19018;49.046;9.140;2022-07-19T15:09:19;37.50;35.00
32594;DHT22;19018;49.046;9.140;2022-07-19T15:14:11;37.50;36.40
32594;DHT22;19018;49.046;9.140;2022-07-19T15:16:38;37.50;35.80
32594;DHT22;19018;49.046;9.140;2022-07-19T15:19:03;37.40;35.30
32594;DHT22;19018;49.046;9.140;2022-07-19T15:21:32;37.40;34.00
32594;DHT22;19018;49.046;9.140;2022-07-19T15:24:03;37.40;35.40
32594;DHT22;19018;49.046;9.140;2022-07-19T15:26:32;37.40;36.30
32594;DHT22;19018;49.046;9.140;2022-07-19T15:28:58;37.40;35.40
32594;DHT22;19018;49.046;9.140;2022-07-19T15:31:44;37.40;35.70
32594;DHT22;19018;49.046;9.140;2022-07-19T15:34:13;37.40;36.10
32594;DHT22;19018;49.046;9.140;2022-07-19T15:36:39;37.40;36.50
32594;DHT22;19018;49.046;9.140;2022-07-19T15:39:04;37.40;37.00
32594;DHT22;19018;49.046;9.140;2022-07-19T15:44:05;37.30;35.90
32594;DHT22;19018;49.046;9.140;2022-07-19T15:46:40;37.30;36.20
32594;DHT22;19018;49.046;9.140;2022-07-19T15:49:12;37.30;35.60
32594;DHT22;19018;49.046;9.140;2022-07-19T15:54:04;37.20;33.80
32594;DHT22;19018;49.046;9.140;2022-07-19T15:56:34;37.20;35.00
32594;DHT22;19018;49.046;9.140;2022-07-19T15:59:06;37.20;36.30
32594;DHT22;19018;49.046;9.140;2022-07-19T16:01:31;37.20;36.80
32594;DHT22;19018;49.046;9.140;2022-07-19T16:03:57;37.20;37.00
32594;DHT22;19018;49.046;9.140;2022-07-19T16:06:23;37.20;37.20
32594;DHT22;19018;49.046;9.140;2022-07-19T16:08:52;37.20;37.20
32594;DHT22;19018;49.046;9.140;2022-07-19T16:11:17;37.20;36.40
32594;DHT22;19018;49.046;9.140;2022-07-19T16:13:43;37.10;36.50
32594;DHT22;19018;49.046;9.140;2022-07-19T16:16:09;37.20;35.10
32594;DHT22;19018;49.046;9.140;2022-07-19T16:18:53;37.10;35.70
32594;DHT22;19018;49.046;9.140;2022-07-19T16:21:51;37.10;35.80
32594;DHT22;19018;49.046;9.140;2022-07-19T16:24:19;37.10;34.80
32594;DHT22;19018;49.046;9.140;2022-07-19T16:37:35;37.00;35.30
32594;DHT22;19018;49.046;9.140;2022-07-19T16:40:13;36.90;35.90
32594;DHT22;19018;49.046;9.140;2022-07-19T16:42:39;36.90;33.70
32594;DHT22;19018;49.046;9.140;2022-07-19T16:47:51;36.90;34.50
32594;DHT22;19018;49.046;9.140;2022-07-19T16:50:17;36.90;35.70
32594;DHT22;19018;49.046;9.140;2022-07-19T16:53:00;36.80;35.70
32594;DHT22;19018;49.046;9.140;2022-07-19T16:55:26;36.90;35.80
32594;DHT22;19018;49.046;9.140;2022-07-19T16:57:52;36.80;36.50
32594;DHT22;19018;49.046;9.140;2022-07-19T17:00:22;36.80;35.50
32594;DHT22;19018;49.046;9.140;2022-07-19T17:02:53;36.80;36.00
32594;DHT22;19018;49.046;9.140;2022-07-19T17:08:05;36.70;35.20
32594;DHT22;19018;49.046;9.140;2022-07-19T17:10:50;36.70;35.80
32594;DHT22;19018;49.046;9.140;2022-07-19T17:13:15;36.70;36.60
32594;DHT22;19018;49.046;9.140;2022-07-19T17:15:41;36.70;36.00
32594;DHT22;19018;49.046;9.140;2022-07-19T17:18:07;36.60;36.50
32594;DHT22;19018;49.046;9.140;2022-07-19T17:20:32;36.60;36.10
32594;DHT22;19018;49.046;9.140;2022-07-19T17:23:04;36.60;36.00
32594;DHT22;19018;49.046;9.140;2022-07-19T17:25:39;36.60;34.50
32594;DHT22;19018;49.046;9.140;2022-07-19T17:28:08;36.60;33.50
32594;DHT22;19018;49.046;9.140;2022-07-19T17:30:34;36.50;35.80
32594;DHT22;19018;49.046;9.140;2022-07-19T17:33:08;36.50;35.90
32594;DHT22;19018;49.046;9.140;2022-07-19T17:35:34;36.50;35.70
32594;DHT22;19018;49.046;9.140;2022-07-19T17:38:02;36.50;34.80
32594;DHT22;19018;49.046;9.140;2022-07-19T17:40:47;36.40;35.20
32594;DHT22;19018;49.046;9.140;2022-07-19T17:43:16;36.40;34.10
32594;DHT22;19018;49.046;9.140;2022-07-19T17:45:41;36.40;35.60
32594;DHT22;19018;49.046;9.140;2022-07-19T17:48:07;36.40;35.70
32594;DHT22;19018;49.046;9.140;2022-07-19T17:50:32;36.30;36.00
32594;DHT22;19018;49.046;9.140;2022-07-19T17:53:30;36.30;36.20
32594;DHT22;19018;49.046;9.140;2022-07-19T17:56:20;36.30;36.10
32594;DHT22;19018;49.046;9.140;2022-07-19T17:58:46;36.30;35.00
32594;DHT22;19018;49.046;9.140;2022-07-19T18:01:12;36.30;35.80
32594;DHT22;19018;49.046;9.140;2022-07-19T18:03:55;36.30;34.60
32594;DHT22;19018;49.046;9.140;2022-07-19T18:06:24;36.20;35.20
32594;DHT22;19018;49.046;9.140;2022-07-19T18:09:10;36.20;35.60
32594;DHT22;19018;49.046;9.140;2022-07-19T18:11:38;36.20;35.40
32594;DHT22;19018;49.046;9.140;2022-07-19T18:14:16;36.10;35.50
32594;DHT22;19018;49.046;9.140;2022-07-19T18:16:42;36.10;35.20
32594;DHT22;19018;49.046;9.140;2022-07-19T18:19:26;36.10;35.40